Time;durP1;ratioP1;P1;durP2;ratioP2;P2;SDS_P1;SDS_P2;PMS_P1;PMS_P2;Temp;Humidity;BMP_temperature;BMP_pressure;BME280_temperature;BME280_humidity;BME280_pressure;Samples;Min_cycle;Max_cycle;Signal;HPM_P1;HPM_P2
2023/06/12 00:01:17;;;;;;;0.60;0.60;;;21.90;55.40;;;;;;8456028;28;20040;-48
2023/06/12 00:05:19;;;;;;;0.60;0.60;;;21.90;55.40;;;;;;8462574;28;20401;-49
2023/06/12 00:09:20;;;;;;;0.75;0.70;;;21.90;55.50;;;;;;8444393;28;20046;-49
2023/06/12 00:13:22;;;;;;;0.70;0.70;;;21.90;55.40;;;;;;8428441;28;20040;-48
2023/06/12 00:17:22;;;;;;;0.60;0.60;;;21.90;55.50;;;;;;8429738;28;20055;-48
2023/06/12 00:21:23;;;;;;;0.60;0.60;;;21.90;55.40;;;;;;8428569;28;20036;-48
2023/06/12 00:25:25;;;;;;;0.70;0.70;;;21.90;55.50;;;;;;8428686;28;20089;-49
2023/06/12 00:29:26;;;;;;;0.60;0.60;;;21.90;55.50;;;;;;8439693;28;20165;-48
2023/06/12 00:33:27;;;;;;;0.60;0.60;;;21.80;55.50;;;;;;8463071;28;20477;-47
2023/06/12 00:37:27;;;;;;;;;;;21.90;55.50;;;;;;8462398;28;20039;-49
2023/06/12 00:41:28;;;;;;;0.60;0.60;;;21.80;55.40;;;;;;8444072;28;19912;-48
2023/06/12 00:45:29;;;;;;;0.60;0.60;;;21.80;55.50;;;;;;8428516;28;20029;-47
2023/06/12 00:49:30;;;;;;;0.60;0.57;;;21.90;55.50;;;;;;8428701;28;20035;-50
2023/06/12 00:53:32;;;;;;;0.50;0.50;;;21.80;55.50;;;;;;8429088;28;20097;-51
2023/06/12 00:57:32;;;;;;;0.70;0.70;;;21.80;55.50;;;;;;8409606;28;20040;-48
2023/06/12 01:01:33;;;;;;;0.93;0.68;;;21.90;55.50;;;;;;8458077;28;20031;-48
2023/06/12 01:05:38;;;;;;;0.70;0.60;;;21.80;55.40;;;;;;8461119;28;20130;-49
2023/06/12 01:09:45;;;;;;;0.90;0.90;;;21.90;55.50;;;;;;8459206;28;20051;-49
2023/06/12 01:13:46;;;;;;;0.57;0.57;;;21.80;55.40;;;;;;8427431;28;20077;-49
2023/06/12 01:17:46;;;;;;;0.60;0.60;;;21.90;55.50;;;;;;8410822;28;20028;-50
2023/06/12 01:21:52;;;;;;;0.70;0.70;;;21.90;55.50;;;;;;8428135;28;20036;-49
2023/06/12 01:26:33;;;;;;;0.60;0.60;;;21.90;55.50;;;;;;8427557;28;20085;-49
2023/06/12 01:30:43;;;;;;;0.85;0.68;;;21.90;55.50;;;;;;8438723;28;20039;-47
2023/06/12 01:34:59;;;;;;;0.47;0.47;;;21.80;55.40;;;;;;8462800;28;20024;-49
2023/06/12 01:39:01;;;;;;;0.60;0.60;;;21.90;55.50;;;;;;8466787;28;20521;-49
2023/06/12 01:43:01;;;;;;;0.98;0.60;;;21.90;55.40;;;;;;8435850;28;20027;-49
2023/06/12 01:47:03;;;;;;;0.60;0.60;;;21.90;55.50;;;;;;8432847;28;20024;-47
2023/06/12 01:51:03;;;;;;;;;;;21.90;55.50;;;;;;8434547;28;20032;-47
2023/06/12 01:55:05;;;;;;;0.73;0.73;;;21.90;55.50;;;;;;8414931;28;19959;-48
2023/06/12 01:59:05;;;;;;;0.65;0.65;;;21.90;55.50;;;;;;8442143;28;20027;-49
2023/06/12 02:03:06;;;;;;;0.88;0.70;;;21.80;55.50;;;;;;8466292;28;20038;-49
2023/06/12 02:07:07;;;;;;;0.68;0.68;;;21.80;55.40;;;;;;8467270;28;20055;-49
2023/06/12 02:11:08;;;;;;;0.73;0.73;;;21.80;55.50;;;;;;8450935;28;20024;-48
2023/06/12 02:15:10;;;;;;;0.80;0.80;;;21.80;55.40;;;;;;8432862;28;20148;-49
2023/06/12 02:19:10;;;;;;;0.63;0.63;;;21.80;55.40;;;;;;8433524;28;20442;-49
2023/06/12 02:23:11;;;;;;;0.73;0.60;;;21.80;55.50;;;;;;8431701;28;20028;-47
2023/06/12 02:27:12;;;;;;;0.60;0.60;;;21.80;55.50;;;;;;8433373;28;20020;-49
2023/06/12 02:31:13;;;;;;;0.50;0.50;;;21.90;55.50;;;;;;8457914;28;20557;-47
2023/06/12 02:35:13;;;;;;;0.80;0.80;;;21.80;55.40;;;;;;8466401;28;20028;-50
2023/06/12 02:39:14;;;;;;;0.75;0.73;;;21.80;55.50;;;;;;8465226;28;20032;-49
2023/06/12 02:43:15;;;;;;;0.70;0.70;;;21.90;56.00;;;;;;8432738;28;20488;-49
2023/06/12 02:47:16;;;;;;;0.75;0.75;;;21.80;55.50;;;;;;8430905;28;20028;-47
2023/06/12 02:51:16;;;;;;;0.60;0.60;;;21.90;55.50;;;;;;8433101;28;20024;-50
2023/06/12 02:55:18;;;;;;;0.63;0.63;;;21.80;55.40;;;;;;8431491;28;20047;-50
2023/06/12 02:59:22;;;;;;;0.80;0.60;;;21.80;55.40;;;;;;8431226;28;20036;-48
2023/06/12 03:03:22;;;;;;;0.70;0.70;;;21.90;55.50;;;;;;8431932;28;20097;-49
2023/06/12 03:07:23;;;;;;;0.60;0.60;;;21.80;56.00;;;;;;8412337;28;20341;-50
2023/06/12 03:11:24;;;;;;;0.73;0.70;;;21.80;55.40;;;;;;8432149;28;20042;-50
2023/06/12 03:15:24;;;;;;;0.70;0.70;;;21.80;55.40;;;;;;8430206;28;20489;-48
2023/06/12 03:19:25;;;;;;;0.70;0.70;;;21.80;55.40;;;;;;8431373;28;20036;-50
2023/06/12 03:23:26;;;;;;;0.80;0.80;;;21.80;55.40;;;;;;8429782;28;20398;-49
2023/06/12 03:27:29;;;;;;;0.80;0.80;;;21.80;55.40;;;;;;8431040;28;20032;-49
2023/06/12 03:31:30;;;;;;;0.50;0.50;;;21.90;55.50;;;;;;8458542;28;20504;-47
2023/06/12 03:35:31;;;;;;;0.80;0.80;;;21.80;55.50;;;;;;8464064;28;20377;-47
2023/06/12 03:39:31;;;;;;;0.57;0.57;;;21.80;55.40;;;;;;8443541;28;20125;-48
2023/06/12 03:43:32;;;;;;;0.73;0.73;;;21.80;55.50;;;;;;8430383;28;20036;-49
2023/06/12 03:47:32;;;;;;;0.65;0.65;;;21.80;55.50;;;;;;8430571;28;20032;-47
2023/06/12 03:51:33;;;;;;;0.80;0.80;;;21.80;55.50;;;;;;8429112;28;20036;-47
2023/06/12 03:55:35;;;;;;;0.57;0.57;;;21.80;55.50;;;;;;8430230;28;20056;-49
2023/06/12 03:59:36;;;;;;;0.73;0.73;;;21.80;55.50;;;;;;8440120;28;20038;-50
2023/06/12 04:03:38;;;;;;;0.60;0.60;;;21.80;55.50;;;;;;8463833;28;20077;-48
2023/06/12 04:07:39;;;;;;;0.80;0.70;;;21.80;55.40;;;;;;8462458;28;20083;-48
2023/06/12 04:11:40;;;;;;;0.65;0.65;;;21.80;55.50;;;;;;8443232;28;20064;-49
2023/06/12 04:15:41;;;;;;;0.70;0.70;;;21.80;55.40;;;;;;8428601;28;20039;-47
2023/06/12 04:19:42;;;;;;;0.60;0.60;;;21.80;55.40;;;;;;8427730;28;20039;-48
2023/06/12 04:23:47;;;;;;;0.60;0.60;;;21.80;55.40;;;;;;8427073;28;20040;-49
2023/06/12 04:27:48;;;;;;;0.70;0.70;;;21.80;55.50;;;;;;8426993;28;20101;-49
2023/06/12 04:31:49;;;;;;;0.60;0.60;;;21.80;55.40;;;;;;8460683;28;20076;-48
2023/06/12 04:35:50;;;;;;;0.47;0.47;;;21.80;55.40;;;;;;8461651;28;20088;-49
2023/06/12 04:39:52;;;;;;;0.60;0.60;;;21.80;55.40;;;;;;8458513;28;20493;-49
2023/06/12 04:43:58;;;;;;;0.55;0.55;;;21.80;55.40;;;;;;8427966;28;20036;-48
2023/06/12 04:47:59;;;;;;;0.73;0.73;;;21.80;55.40;;;;;;8429150;28;20549;-50
2023/06/12 04:52:03;;;;;;;;;;;21.80;55.40;;;;;;8429102;28;20032;-50
2023/06/12 04:56:05;;;;;;;0.73;0.60;;;21.80;55.40;;;;;;8428387;28;20269;-47
2023/06/12 05:00:06;;;;;;;0.70;0.70;;;21.80;55.40;;;;;;8444889;28;20027;-48
2023/06/12 05:04:06;;;;;;;;;;;21.80;55.40;;;;;;8461939;28;20034;-48
2023/06/12 05:08:07;;;;;;;0.47;0.47;;;21.80;55.40;;;;;;8462627;28;19920;-49
2023/06/12 05:12:08;;;;;;;0.60;0.60;;;21.80;55.40;;;;;;8441905;28;20106;-48
2023/06/12 05:16:08;;;;;;;0.82;0.75;;;21.80;55.50;;;;;;8435222;28;20477;-49
2023/06/12 05:20:09;;;;;;;0.50;0.50;;;21.80;55.50;;;;;;8433817;28;20040;-50
2023/06/12 05:24:10;;;;;;;0.70;0.70;;;21.80;55.50;;;;;;8435019;28;20020;-49
2023/06/12 05:28:11;;;;;;;0.52;0.52;;;21.80;55.50;;;;;;8415561;28;20405;-48
2023/06/12 05:32:12;;;;;;;0.90;0.80;;;21.80;55.50;;;;;;8450072;28;20035;-50
2023/06/12 05:36:13;;;;;;;0.60;0.60;;;21.80;55.50;;;;;;8449798;28;20111;-46
2023/06/12 05:40:14;;;;;;;0.65;0.65;;;21.80;55.40;;;;;;8459371;28;20041;-49
2023/06/12 05:44:15;;;;;;;0.70;0.70;;;21.80;55.50;;;;;;8434377;28;20090;-48
2023/06/12 05:48:15;;;;;;;0.50;0.47;;;21.80;55.50;;;;;;8433079;28;20032;-49
2023/06/12 05:52:16;;;;;;;0.70;0.70;;;21.80;55.40;;;;;;8434213;28;20035;-49
2023/06/12 05:56:17;;;;;;;0.50;0.50;;;21.80;55.50;;;;;;8432787;28;20160;-49
2023/06/12 06:00:17;;;;;;;0.70;0.50;;;21.80;55.40;;;;;;8451592;28;20061;-49
2023/06/12 06:04:18;;;;;;;0.70;0.70;;;21.80;55.40;;;;;;8466058;28;20447;-50
2023/06/12 06:08:20;;;;;;;0.73;0.60;;;21.80;55.50;;;;;;8468156;28;20122;-49
2023/06/12 06:12:20;;;;;;;0.73;0.68;;;21.80;55.40;;;;;;8421842;28;20115;-49
2023/06/12 06:16:21;;;;;;;0.60;0.60;;;21.80;55.40;;;;;;8434148;28;20040;-49
2023/06/12 06:20:22;;;;;;;0.85;0.55;;;21.80;55.50;;;;;;8432645;28;20123;-50
2023/06/12 06:24:23;;;;;;;0.70;0.70;;;21.80;55.40;;;;;;8431453;28;20054;-50
2023/06/12 06:28:23;;;;;;;0.70;0.70;;;21.80;55.40;;;;;;8434313;28;20042;-48
2023/06/12 06:32:25;;;;;;;0.68;0.68;;;21.80;55.40;;;;;;8465093;28;20396;-49
2023/06/12 06:36:26;;;;;;;0.68;0.68;;;21.80;55.40;;;;;;8466659;28;20028;-49
2023/06/12 06:40:27;;;;;;;;;;;21.80;55.40;;;;;;8455359;28;20054;-49
2023/06/12 06:44:28;;;;;;;0.70;0.60;;;21.80;55.40;;;;;;8432410;28;20015;-48
2023/06/12 06:48:28;;;;;;;0.57;0.57;;;21.80;55.50;;;;;;8429790;28;20032;-50
2023/06/12 06:52:29;;;;;;;0.50;0.50;;;21.80;55.40;;;;;;8432419;28;20039;-49
2023/06/12 06:56:30;;;;;;;0.60;0.60;;;21.80;55.40;;;;;;8430826;28;20032;-49
2023/06/12 07:00:30;;;;;;;0.70;0.70;;;21.80;55.40;;;;;;8451860;28;20034;-49
2023/06/12 07:04:31;;;;;;;0.55;0.55;;;21.80;55.50;;;;;;8464967;28;20036;-48
2023/06/12 07:08:32;;;;;;;0.70;0.70;;;21.80;55.50;;;;;;8464872;28;20080;-47
2023/06/12 07:12:33;;;;;;;0.65;0.60;;;21.80;55.40;;;;;;8437534;28;20434;-47
2023/06/12 07:16:34;;;;;;;0.60;0.60;;;21.80;55.50;;;;;;8429999;28;20489;-49
2023/06/12 07:20:34;;;;;;;0.70;0.70;;;21.80;55.40;;;;;;8431259;28;20437;-49
2023/06/12 07:24:37;;;;;;;0.68;0.52;;;21.80;55.40;;;;;;8429770;28;20512;-50
2023/06/12 07:28:38;;;;;;;0.50;0.50;;;21.80;55.40;;;;;;8434477;28;20063;-49
2023/06/12 07:32:38;;;;;;;0.45;0.45;;;21.80;55.40;;;;;;8463321;28;20062;-48
2023/06/12 07:36:39;;;;;;;0.70;0.70;;;21.80;55.40;;;;;;8464563;28;20073;-49
2023/06/12 07:40:39;;;;;;;1.05;0.77;;;21.80;55.40;;;;;;8451569;28;20089;-48
2023/06/12 07:44:40;;;;;;;0.65;0.65;;;21.80;55.40;;;;;;8430619;28;20080;-49
2023/06/12 07:48:41;;;;;;;0.70;0.70;;;21.90;55.50;;;;;;8429983;28;20074;-49
2023/06/12 07:52:42;;;;;;;0.60;0.60;;;21.80;55.40;;;;;;8411771;28;20035;-51
2023/06/12 07:56:44;;;;;;;0.63;0.63;;;21.80;55.40;;;;;;8430281;28;20448;-49
2023/06/12 08:00:44;;;;;;;0.60;0.60;;;21.80;55.40;;;;;;8449993;28;20055;-50
2023/06/12 08:04:45;;;;;;;0.50;0.50;;;21.80;55.50;;;;;;8445646;28;20043;-48
2023/06/12 08:08:47;;;;;;;0.60;0.60;;;21.80;55.40;;;;;;8462314;28;20050;-49
2023/06/12 08:12:48;;;;;;;0.63;0.63;;;21.80;55.40;;;;;;8433435;28;20028;-49
2023/06/12 08:16:49;;;;;;;0.50;0.50;;;21.80;55.40;;;;;;8428361;28;20028;-50
2023/06/12 08:20:50;;;;;;;0.50;0.50;;;21.80;55.50;;;;;;8430118;28;20036;-49
2023/06/12 08:24:51;;;;;;;0.60;0.60;;;21.80;55.50;;;;;;8428963;28;20031;-49
2023/06/12 08:28:52;;;;;;;0.70;0.65;;;21.80;55.50;;;;;;8434424;28;20488;-49
2023/06/12 08:32:52;;;;;;;0.80;0.70;;;21.80;55.40;;;;;;8462536;28;20035;-47
2023/06/12 08:36:53;;;;;;;0.55;0.52;;;21.80;55.40;;;;;;8463223;28;20466;-49
2023/06/12 08:40:57;;;;;;;1.27;0.88;;;21.80;55.50;;;;;;8448988;28;20052;-49
2023/06/12 08:45:03;;;;;;;0.80;0.80;;;21.80;55.50;;;;;;8429625;28;20122;-50
2023/06/12 08:49:04;;;;;;;0.70;0.70;;;21.80;55.40;;;;;;8436078;28;20455;-48
2023/06/12 08:53:05;;;;;;;0.80;0.80;;;21.80;55.40;;;;;;8434692;28;20248;-49
2023/06/12 08:57:07;;;;;;;0.70;0.70;;;21.80;55.50;;;;;;8436409;28;20051;-50
2023/06/12 09:01:12;;;;;;;0.65;0.65;;;21.80;55.50;;;;;;8459109;28;20036;-50
2023/06/12 09:05:26;;;;;;;0.82;0.73;;;21.80;55.40;;;;;;8469046;28;20043;-49
2023/06/12 09:09:40;;;;;;;0.85;0.82;;;21.80;55.40;;;;;;8467496;28;20157;-50
2023/06/12 09:13:44;;;;;;;0.65;0.60;;;21.80;55.40;;;;;;8434268;28;20028;-48
2023/06/12 09:17:49;;;;;;;0.60;0.60;;;21.80;55.40;;;;;;8435359;28;20032;-48
2023/06/12 09:21:50;;;;;;;0.70;0.70;;;21.80;55.40;;;;;;8433893;28;20073;-48
2023/06/12 09:25:54;;;;;;;0.70;0.70;;;21.80;55.40;;;;;;8435136;28;20024;-49
2023/06/12 09:29:59;;;;;;;0.68;0.68;;;21.90;55.40;;;;;;8447924;28;20024;-50
2023/06/12 09:34:00;;;;;;;0.77;0.68;;;21.80;55.40;;;;;;8467532;28;20426;-47
2023/06/12 09:38:01;;;;;;;0.77;0.77;;;21.80;55.40;;;;;;8469098;28;20142;-48
2023/06/12 09:42:02;;;;;;;0.60;0.60;;;21.80;55.30;;;;;;8443025;28;20618;-50
2023/06/12 09:46:06;;;;;;;0.63;0.63;;;21.80;55.30;;;;;;8434431;28;20371;-47
2023/06/12 09:50:07;;;;;;;0.50;0.50;;;21.90;55.40;;;;;;8432926;28;20116;-49
2023/06/12 09:54:10;;;;;;;0.50;0.50;;;21.80;55.40;;;;;;8434137;28;20024;-49
2023/06/12 09:58:13;;;;;;;0.60;0.60;;;21.80;55.40;;;;;;8431355;28;20043;-49
2023/06/12 10:02:16;;;;;;;0.60;0.60;;;21.80;55.40;;;;;;8468179;28;20036;-49
2023/06/12 10:06:17;;;;;;;0.70;0.70;;;21.80;55.40;;;;;;8466565;28;20552;-48
2023/06/12 10:10:19;;;;;;;0.60;0.50;;;21.80;55.40;;;;;;8458058;28;20038;-49
2023/06/12 10:14:21;;;;;;;0.50;0.50;;;21.80;55.50;;;;;;8433516;28;20039;-48
2023/06/12 10:18:24;;;;;;;0.50;0.50;;;21.80;55.40;;;;;;8432229;28;20031;-49
2023/06/12 10:22:25;;;;;;;0.90;0.60;;;21.80;55.40;;;;;;8433330;28;20051;-47
2023/06/12 10:26:26;;;;;;;0.70;0.70;;;21.80;55.80;;;;;;8431760;28;20035;-48
2023/06/12 10:30:27;;;;;;;0.57;0.57;;;21.80;55.40;;;;;;8451405;28;20492;-48
2023/06/12 10:34:28;;;;;;;0.65;0.65;;;21.80;55.30;;;;;;8465524;28;20414;-48
2023/06/12 10:38:28;;;;;;;0.60;0.50;;;21.80;55.30;;;;;;8466651;28;20028;-50
2023/06/12 10:42:53;;;;;;;0.68;0.68;;;21.80;55.30;;;;;;8438222;28;20088;-50
2023/06/12 10:46:54;;;;;;;0.60;0.60;;;21.80;55.30;;;;;;8430887;28;20055;-48
2023/06/12 10:50:56;;;;;;;0.93;0.60;;;21.80;55.30;;;;;;8432603;28;20039;-49
2023/06/12 10:55:20;;;;;;;0.75;0.75;;;21.90;55.30;;;;;;8430874;28;20375;-50
2023/06/12 10:59:28;;;;;;;0.82;0.73;;;21.90;55.30;;;;;;8441448;28;20034;-49
2023/06/12 11:03:29;;;;;;;0.70;0.70;;;21.80;55.20;;;;;;8465124;28;20079;-50
2023/06/12 11:07:31;;;;;;;0.80;0.80;;;21.80;55.20;;;;;;8464482;28;20051;-49
2023/06/12 11:11:32;;;;;;;0.60;0.60;;;21.90;55.30;;;;;;8445851;28;20063;-48
2023/06/12 11:15:44;;;;;;;0.70;0.70;;;21.80;55.20;;;;;;8430662;28;20085;-49
2023/06/12 11:19:45;;;;;;;0.60;0.60;;;21.90;55.30;;;;;;8431427;28;20027;-48
2023/06/12 11:23:45;;;;;;;0.70;0.70;;;21.90;55.30;;;;;;8429793;28;20389;-50
2023/06/12 11:27:47;;;;;;;0.70;0.70;;;21.80;55.30;;;;;;8431071;28;20028;-48
2023/06/12 11:31:50;;;;;;;0.60;0.60;;;21.90;55.30;;;;;;8460246;28;20036;-49
2023/06/12 11:35:57;;;;;;;0.60;0.60;;;21.90;55.40;;;;;;8464082;28;20036;-50
2023/06/12 11:40:07;;;;;;;0.60;0.60;;;21.80;55.30;;;;;;8458366;28;20036;-47
2023/06/12 11:44:08;;;;;;;0.80;0.60;;;21.80;55.30;;;;;;8429274;28;20118;-51
2023/06/12 11:48:14;;;;;;;0.70;0.70;;;21.80;55.30;;;;;;8430861;28;20027;-48
2023/06/12 11:52:15;;;;;;;0.60;0.60;;;21.80;55.30;;;;;;8429373;28;20031;-49
2023/06/12 11:56:15;;;;;;;0.70;0.70;;;21.80;55.30;;;;;;8412271;28;20028;-50
2023/06/12 12:00:21;;;;;;;0.63;0.63;;;21.90;55.30;;;;;;8429253;28;20028;-47
2023/06/12 12:04:22;;;;;;;0.50;0.50;;;21.80;55.20;;;;;;8430060;28;20103;-49
2023/06/12 12:08:25;;;;;;;0.60;0.60;;;21.90;55.30;;;;;;8429751;28;20739;-49
2023/06/12 12:12:26;;;;;;;0.60;0.60;;;21.80;55.20;;;;;;8429313;28;20024;-49
2023/06/12 12:16:31;;;;;;;0.77;0.77;;;21.90;55.30;;;;;;8430007;28;20039;-48
2023/06/12 12:20:31;;;;;;;0.70;0.70;;;21.80;55.20;;;;;;8426553;28;20475;-47
2023/06/12 12:24:38;;;;;;;0.70;0.70;;;21.90;55.20;;;;;;8427187;28;20031;-47
2023/06/12 12:28:39;;;;;;;0.60;0.60;;;21.90;55.20;;;;;;8430067;28;20098;-48
2023/06/12 12:32:40;;;;;;;0.77;0.77;;;21.90;55.20;;;;;;8463590;28;20035;-47
2023/06/12 12:36:42;;;;;;;0.90;0.70;;;21.90;55.20;;;;;;8462664;28;20044;-49
2023/06/12 12:40:42;;;;;;;0.70;0.70;;;21.90;55.20;;;;;;8450241;28;20035;-48
2023/06/12 12:44:43;;;;;;;0.70;0.70;;;21.90;55.20;;;;;;8428932;28;20063;-48
2023/06/12 12:48:45;;;;;;;0.50;0.50;;;21.90;55.20;;;;;;8428184;28;20086;-47
2023/06/12 12:52:46;;;;;;;0.50;0.50;;;21.90;55.20;;;;;;8429452;28;20077;-47
2023/06/12 12:56:47;;;;;;;1.20;0.90;;;21.90;55.20;;;;;;8427727;28;20085;-49
2023/06/12 13:00:47;;;;;;;0.70;0.70;;;21.90;55.20;;;;;;8449622;28;20080;-49
2023/06/12 13:04:48;;;;;;;0.75;0.75;;;21.90;55.20;;;;;;8461519;28;20034;-48
2023/06/12 13:08:48;;;;;;;0.70;0.70;;;21.90;55.20;;;;;;8462571;28;20044;-49
2023/06/12 13:12:49;;;;;;;0.52;0.50;;;21.90;55.20;;;;;;8431260;28;20029;-47
2023/06/12 13:16:50;;;;;;;0.70;0.70;;;21.90;55.20;;;;;;8428935;28;20076;-50
2023/06/12 13:20:51;;;;;;;;;;;21.90;55.20;;;;;;8428526;28;20031;-47
2023/06/12 13:24:52;;;;;;;0.70;0.70;;;21.90;55.10;;;;;;8428018;28;20411;-49
2023/06/12 13:28:54;;;;;;;1.00;0.82;;;21.90;55.10;;;;;;8433605;28;20039;-48
2023/06/12 13:32:55;;;;;;;0.80;0.80;;;21.90;55.10;;;;;;8465319;28;20031;-49
2023/06/12 13:36:56;;;;;;;0.60;0.50;;;21.90;55.10;;;;;;8468738;28;20031;-50
2023/06/12 13:40:56;;;;;;;0.70;0.70;;;21.90;55.10;;;;;;8452677;28;20034;-48
2023/06/12 13:44:57;;;;;;;0.70;0.70;;;21.90;55.10;;;;;;8433795;28;20039;-48
2023/06/12 13:48:58;;;;;;;0.77;0.77;;;21.90;55.00;;;;;;8433660;28;20031;-50
2023/06/12 13:52:59;;;;;;;;;;;22.00;55.00;;;;;;8434516;28;20542;-47
2023/06/12 13:57:00;;;;;;;0.70;0.70;;;21.90;55.00;;;;;;8433492;28;20312;-50
2023/06/12 14:01:00;;;;;;;0.75;0.70;;;22.00;55.00;;;;;;8455725;28;20572;-48
2023/06/12 14:05:01;;;;;;;0.70;0.50;;;22.00;55.00;;;;;;8467616;28;20267;-48
2023/06/12 14:09:02;;;;;;;0.60;0.60;;;22.00;55.00;;;;;;8465941;28;20051;-47
2023/06/12 14:13:03;;;;;;;0.90;0.85;;;22.00;55.00;;;;;;8435064;28;20042;-48
2023/06/12 14:17:04;;;;;;;0.63;0.63;;;22.00;55.00;;;;;;8414080;28;20024;-49
2023/06/12 14:21:07;;;;;;;0.80;0.80;;;22.00;55.00;;;;;;8433556;28;20043;-49
2023/06/12 14:25:07;;;;;;;0.52;0.52;;;22.00;55.00;;;;;;8431798;28;20036;-50
2023/06/12 14:29:08;;;;;;;0.95;0.82;;;22.00;55.20;;;;;;8439396;28;20104;-49
2023/06/12 14:33:09;;;;;;;0.60;0.50;;;22.00;55.00;;;;;;8466084;28;20031;-49
2023/06/12 14:37:09;;;;;;;0.70;0.70;;;22.00;55.00;;;;;;8465934;28;20039;-50
2023/06/12 14:41:10;;;;;;;0.68;0.68;;;21.90;55.00;;;;;;8449550;28;20055;-49
2023/06/12 14:45:11;;;;;;;0.77;0.77;;;22.00;55.00;;;;;;8431007;28;20101;-49
2023/06/12 14:49:11;;;;;;;0.60;0.60;;;22.00;55.00;;;;;;8432471;28;20031;-49
2023/06/12 14:53:12;;;;;;;0.75;0.70;;;22.00;55.00;;;;;;8430952;28;20370;-47
2023/06/12 14:57:13;;;;;;;0.70;0.70;;;22.00;55.00;;;;;;8432629;28;20028;-49
2023/06/12 15:01:13;;;;;;;0.80;0.75;;;22.00;55.00;;;;;;8454491;28;20476;-48
2023/06/12 15:05:14;;;;;;;0.60;0.60;;;22.00;55.00;;;;;;8465519;28;20047;-50
2023/06/12 15:09:15;;;;;;;0.70;0.70;;;22.00;55.00;;;;;;8464186;28;20074;-50
2023/06/12 15:13:16;;;;;;;0.77;0.77;;;22.00;55.00;;;;;;8431545;28;20028;-49
2023/06/12 15:17:16;;;;;;;0.70;0.70;;;22.00;55.50;;;;;;8430838;28;20023;-47
2023/06/12 15:21:18;;;;;;;0.80;0.80;;;22.00;55.00;;;;;;8431738;28;20494;-48
2023/06/12 15:25:19;;;;;;;0.90;0.90;;;22.00;55.00;;;;;;8430369;28;20039;-49
2023/06/12 15:29:20;;;;;;;0.77;0.77;;;22.00;55.00;;;;;;8438064;28;20036;-48
2023/06/12 15:33:20;;;;;;;1.00;0.88;;;21.90;55.00;;;;;;8465165;28;20023;-49
2023/06/12 15:37:21;;;;;;;1.02;0.90;;;22.00;55.10;;;;;;8463186;28;20035;-48
2023/06/12 15:41:21;;;;;;;0.70;0.70;;;22.00;55.10;;;;;;8446677;28;20027;-48
2023/06/12 15:45:22;;;;;;;0.70;0.70;;;22.00;55.10;;;;;;8428809;28;20495;-47
2023/06/12 15:49:23;;;;;;;1.00;0.88;;;21.90;55.00;;;;;;8430680;28;20102;-49
2023/06/12 15:53:25;;;;;;;0.65;0.65;;;21.90;55.00;;;;;;8429680;28;20373;-49
2023/06/12 15:57:26;;;;;;;0.90;0.80;;;21.90;55.00;;;;;;8430370;28;20047;-48
2023/06/12 16:01:27;;;;;;;0.63;0.63;;;21.90;55.00;;;;;;8454840;28;20500;-49
2023/06/12 16:05:27;;;;;;;1.10;0.70;;;21.90;55.00;;;;;;8463139;28;20059;-48
2023/06/12 16:09:28;;;;;;;0.63;0.60;;;21.90;55.00;;;;;;8461068;28;20030;-49
2023/06/12 16:13:29;;;;;;;1.35;0.80;;;21.90;55.00;;;;;;8430140;28;20539;-50
2023/06/12 16:17:29;;;;;;;0.80;0.65;;;21.90;55.10;;;;;;8430081;28;20707;-50
2023/06/12 16:21:31;;;;;;;0.63;0.63;;;21.90;55.10;;;;;;8428154;28;20042;-48
2023/06/12 16:25:32;;;;;;;0.82;0.82;;;21.90;55.10;;;;;;8429529;28;20024;-47
2023/06/12 16:29:33;;;;;;;0.75;0.73;;;21.90;55.10;;;;;;8419631;28;20016;-50
2023/06/12 16:33:33;;;;;;;0.82;0.82;;;21.90;55.20;;;;;;8463236;28;20024;-49
2023/06/12 16:37:34;;;;;;;0.77;0.60;;;21.90;55.60;;;;;;8461762;28;20024;-48
2023/06/12 16:41:36;;;;;;;1.00;0.80;;;21.90;55.10;;;;;;8443467;28;20694;-48
2023/06/12 16:45:37;;;;;;;0.63;0.63;;;21.90;55.10;;;;;;8428731;28;20100;-50
2023/06/12 16:49:39;;;;;;;0.70;0.70;;;22.00;55.10;;;;;;8428723;28;20081;-49
2023/06/12 16:53:39;;;;;;;;;;;21.90;55.00;;;;;;8429600;28;20036;-49
2023/06/12 16:57:40;;;;;;;0.80;0.80;;;21.90;55.00;;;;;;8428028;28;20324;-48
2023/06/12 17:01:41;;;;;;;1.08;0.98;;;21.90;55.00;;;;;;8456749;28;20028;-50
2023/06/12 17:05:41;;;;;;;1.00;0.90;;;21.90;55.00;;;;;;8462295;28;20536;-49
2023/06/12 17:09:42;;;;;;;0.70;0.70;;;21.90;55.00;;;;;;8465572;28;20752;-50
2023/06/12 17:13:43;;;;;;;0.98;0.90;;;21.90;55.10;;;;;;8434428;28;20389;-49
2023/06/12 17:17:44;;;;;;;0.73;0.73;;;21.90;55.00;;;;;;8435494;28;20095;-51
2023/06/12 17:21:45;;;;;;;0.82;0.65;;;22.00;55.10;;;;;;8433954;28;20031;-48
2023/06/12 17:25:46;;;;;;;0.75;0.75;;;21.90;55.00;;;;;;8435206;28;20105;-49
2023/06/12 17:29:48;;;;;;;0.80;0.80;;;21.90;55.00;;;;;;8445505;28;20081;-48
2023/06/12 17:33:49;;;;;;;0.85;0.85;;;21.90;55.00;;;;;;8468002;28;20036;-49
2023/06/12 17:37:49;;;;;;;0.70;0.70;;;21.90;55.00;;;;;;8468492;28;20024;-49
2023/06/12 17:41:50;;;;;;;0.70;0.70;;;21.90;55.00;;;;;;8445045;28;20031;-49
2023/06/12 17:45:50;;;;;;;0.90;0.77;;;21.90;55.00;;;;;;8434839;28;20028;-50
2023/06/12 17:49:51;;;;;;;0.90;0.90;;;21.90;55.00;;;;;;8433285;28;20028;-50
2023/06/12 17:53:52;;;;;;;0.98;0.95;;;21.90;55.10;;;;;;8434316;28;20044;-49
2023/06/12 17:57:53;;;;;;;0.93;0.82;;;21.90;55.10;;;;;;8432943;28;20028;-50
2023/06/12 18:01:54;;;;;;;0.80;0.80;;;21.90;55.10;;;;;;8444497;28;20110;-48
2023/06/12 18:05:55;;;;;;;0.85;0.85;;;21.90;55.00;;;;;;8466571;28;20128;-48
2023/06/12 18:09:56;;;;;;;0.75;0.75;;;21.90;55.00;;;;;;8461845;28;20028;-47
2023/06/12 18:13:56;;;;;;;0.60;0.60;;;21.90;55.00;;;;;;8433558;28;20028;-49
2023/06/12 18:17:57;;;;;;;0.90;0.70;;;21.90;55.00;;;;;;8431600;28;20038;-48
2023/06/12 18:21:57;;;;;;;0.77;0.77;;;21.90;55.00;;;;;;8433788;28;20039;-49
2023/06/12 18:25:58;;;;;;;0.73;0.70;;;21.90;55.00;;;;;;8431717;28;20434;-48
2023/06/12 18:29:59;;;;;;;0.60;0.60;;;21.90;55.00;;;;;;8445711;28;20384;-50
2023/06/12 18:33:59;;;;;;;0.95;0.90;;;21.90;55.00;;;;;;8465616;28;20081;-48
2023/06/12 18:38:00;;;;;;;0.80;0.80;;;21.90;55.00;;;;;;8448484;28;20032;-49
2023/06/12 18:42:01;;;;;;;0.80;0.80;;;22.00;55.10;;;;;;8423911;28;20107;-49
2023/06/12 18:46:02;;;;;;;0.70;0.70;;;21.90;55.00;;;;;;8432790;28;20263;-48
2023/06/12 18:50:03;;;;;;;0.95;0.75;;;21.90;55.00;;;;;;8431546;28;20189;-47
2023/06/12 18:54:04;;;;;;;0.70;0.70;;;21.90;55.00;;;;;;8432652;28;20067;-49
2023/06/12 18:58:04;;;;;;;;;;;22.00;55.10;;;;;;8432100;28;20035;-49
2023/06/12 19:02:05;;;;;;;0.83;0.80;;;21.90;55.00;;;;;;8443428;28;19953;-49
2023/06/12 19:06:06;;;;;;;0.90;0.90;;;21.90;55.00;;;;;;8465423;28;20043;-47
2023/06/12 19:10:07;;;;;;;0.63;0.63;;;21.90;55.00;;;;;;8456819;28;20085;-49
2023/06/12 19:14:07;;;;;;;0.80;0.80;;;21.90;55.00;;;;;;8431310;28;20080;-48
2023/06/12 19:18:08;;;;;;;0.93;0.93;;;21.90;55.10;;;;;;8430099;28;20170;-50
2023/06/12 19:22:09;;;;;;;0.77;0.77;;;21.90;55.10;;;;;;8431409;28;20381;-48
2023/06/12 19:26:11;;;;;;;0.75;0.70;;;21.90;55.10;;;;;;8429722;28;20422;-48
2023/06/12 19:30:13;;;;;;;1.02;0.82;;;21.90;55.10;;;;;;8445155;28;20030;-50
2023/06/12 19:34:14;;;;;;;0.80;0.80;;;21.90;55.10;;;;;;8463155;28;20092;-47
2023/06/12 19:38:14;;;;;;;0.65;0.60;;;21.90;55.10;;;;;;8465508;28;20063;-49
2023/06/12 19:42:15;;;;;;;0.60;0.60;;;21.90;55.10;;;;;;8438442;28;20028;-50
2023/06/12 19:46:16;;;;;;;0.90;0.70;;;21.90;55.10;;;;;;8429939;28;20024;-49
2023/06/12 19:50:18;;;;;;;0.82;0.82;;;21.90;55.10;;;;;;8430460;28;20028;-48
2023/06/12 19:54:18;;;;;;;0.75;0.70;;;21.90;55.10;;;;;;8429172;28;20080;-49
2023/06/12 19:58:19;;;;;;;1.00;0.80;;;21.90;55.10;;;;;;8430421;28;20024;-50
2023/06/12 20:02:19;;;;;;;0.60;0.60;;;21.90;55.10;;;;;;8460923;28;20027;-50
2023/06/12 20:06:20;;;;;;;0.70;0.70;;;21.90;55.10;;;;;;8463103;28;20046;-47
2023/06/12 20:10:21;;;;;;;0.82;0.80;;;22.00;55.60;;;;;;8453168;28;20070;-49
2023/06/12 20:14:23;;;;;;;;;;;21.90;55.10;;;;;;8430482;28;20411;-47
2023/06/12 20:18:23;;;;;;;;;;;21.90;55.60;;;;;;8429546;28;19915;-50
2023/06/12 20:22:24;;;;;;;0.80;0.70;;;21.90;55.10;;;;;;8429254;28;19965;-47
2023/06/12 20:26:26;;;;;;;1.10;1.00;;;21.90;55.10;;;;;;8431228;28;20024;-49
2023/06/12 20:30:26;;;;;;;3.65;1.00;;;21.90;56.10;;;;;;8460759;28;20595;-47
2023/06/12 20:34:27;;;;;;;0.60;0.60;;;22.00;56.10;;;;;;8463619;28;20062;-52
2023/06/12 20:38:27;;;;;;;0.80;0.80;;;22.00;55.20;;;;;;8461872;28;20031;-51
2023/06/12 20:42:28;;;;;;;1.10;0.70;;;22.00;55.30;;;;;;8435097;28;20050;-47
2023/06/12 20:46:29;;;;;;;0.65;0.63;;;22.10;55.10;;;;;;8427865;28;20028;-47
2023/06/12 20:50:30;;;;;;;1.67;0.80;;;22.10;55.60;;;;;;8428664;28;20097;-46
2023/06/12 20:54:30;;;;;;;3.25;0.65;;;22.10;55.60;;;;;;8427626;28;20470;-44
2023/06/12 20:58:31;;;;;;;1.65;1.02;;;22.00;55.80;;;;;;8428900;28;20658;-46
2023/06/12 21:02:31;;;;;;;0.80;0.70;;;22.00;56.20;;;;;;8461179;28;20168;-51